createdAt,value
2022-11-16T00:01:00.704Z,99881.65
2022-11-16T00:03:27.706Z,99880.42
2022-11-16T00:05:59.173Z,99874.33
2022-11-16T00:08:26.101Z,99873.96
2022-11-16T00:10:52.649Z,99873.95
2022-11-16T00:13:20.036Z,99872.77
2022-11-16T00:15:56.695Z,99873.13
2022-11-16T00:18:23.451Z,99862.56
2022-11-16T00:20:50.378Z,99859.66
2022-11-16T00:23:17.141Z,99861.59
2022-11-16T00:25:44.165Z,99859.02
2022-11-16T00:28:10.983Z,99860.77
2022-11-16T00:30:38.134Z,99860.61
2022-11-16T00:33:06.301Z,99855.23
2022-11-16T00:35:39.137Z,99856.62
2022-11-16T00:38:07.706Z,99856.09
2022-11-16T00:40:35.051Z,99855.41
2022-11-16T00:43:01.686Z,99851.92
2022-11-16T00:45:28.264Z,99845.32
2022-11-16T00:48:00.192Z,99846.33
2022-11-16T00:50:27.374Z,99839.89
2022-11-16T00:52:54.076Z,99840.76
2022-11-16T00:55:20.892Z,99835.19
2022-11-16T00:57:47.523Z,99830.81
2022-11-16T01:00:15.420Z,99827.50
2022-11-16T01:02:42.039Z,99820.90
2022-11-16T01:05:09.571Z,99820.58
2022-11-16T01:07:38.012Z,99816.39
2022-11-16T01:10:06.967Z,99816.86
2022-11-16T01:12:34.772Z,99809.52
2022-11-16T01:15:01.645Z,99801.91
2022-11-16T01:17:28.225Z,99801.06
2022-11-16T01:19:55.100Z,99801.63
2022-11-16T01:22:21.641Z,99798.19
2022-11-16T01:24:48.212Z,99791.95
2022-11-16T01:27:14.919Z,99791.77
2022-11-16T01:29:44.688Z,99787.20
2022-11-16T01:32:11.409Z,99777.98
2022-11-16T01:34:38.119Z,99779.39
2022-11-16T01:37:32.324Z,99779.74
2022-11-16T01:39:59.203Z,99765.17
2022-11-16T01:42:28.759Z,99770.36
2022-11-16T01:45:05.963Z,99773.98
2022-11-16T01:47:33.838Z,99766.70
2022-11-16T01:50:05.610Z,99764.08
2022-11-16T01:52:36.358Z,99761.32
2022-11-16T01:55:04.201Z,99759.94
2022-11-16T01:57:43.597Z,99754.54
2022-11-16T02:00:11.825Z,99751.27
2022-11-16T02:02:43.214Z,99754.24
2022-11-16T02:05:24.335Z,99752.50
2022-11-16T02:08:43.544Z,99743.86
2022-11-16T02:11:19.479Z,99736.06
2022-11-16T02:14:24.233Z,99729.13
2022-11-16T02:17:12.288Z,99731.95
2022-11-16T02:20:08.849Z,99724.31
2022-11-16T02:22:54.002Z,99725.02
2022-11-16T02:25:30.043Z,99726.20
2022-11-16T02:28:32.305Z,99723.59
2022-11-16T02:31:04.899Z,99725.14
2022-11-16T02:33:36.803Z,99719.53
2022-11-16T02:36:08.101Z,99714.83
2022-11-16T02:38:39.096Z,99717.59
2022-11-16T02:41:17.032Z,99712.54
2022-11-16T02:43:50.200Z,99708.02
2022-11-16T02:46:26.489Z,99708.39
2022-11-16T02:48:59.541Z,99704.92
2022-11-16T02:51:27.759Z,99704.23
2022-11-16T02:54:12.321Z,99702.86
2022-11-16T02:56:56.164Z,99703.73
2022-11-16T02:59:30.003Z,99701.48
2022-11-16T03:02:05.850Z,99696.11
2022-11-16T03:04:37.327Z,99693.70
2022-11-16T03:07:08.610Z,99689.05
2022-11-16T03:09:39.343Z,99684.90
2022-11-16T03:12:14.106Z,99682.46
2022-11-16T03:14:47.045Z,99676.55
2022-11-16T03:17:28.991Z,99681.58
2022-11-16T03:20:03.804Z,99679.31
2022-11-16T03:22:43.151Z,99671.67
2022-11-16T03:25:13.162Z,99674.26
2022-11-16T03:27:51.750Z,99666.58
2022-11-16T03:30:24.357Z,99662.92
2022-11-16T03:33:00.833Z,99663.27
2022-11-16T03:35:34.313Z,99658.23
2022-11-16T03:38:03.397Z,99651.96
2022-11-16T03:40:33.915Z,99647.45
2022-11-16T03:43:05.649Z,99649.36
2022-11-16T03:45:33.071Z,99649.01
2022-11-16T03:47:59.974Z,99646.58
2022-11-16T03:50:27.037Z,99642.41
2022-11-16T03:52:53.875Z,99639.80
2022-11-16T03:55:20.595Z,99637.21
2022-11-16T03:57:47.400Z,99631.65
2022-11-16T04:00:15.083Z,99623.48
2022-11-16T04:02:41.731Z,99622.79
2022-11-16T04:05:29.238Z,99615.65
2022-11-16T04:08:14.395Z,99619.63
2022-11-16T04:10:59.576Z,99615.64
2022-11-16T04:13:48.829Z,99613.54
2022-11-16T04:16:35.033Z,99613.16
2022-11-16T04:19:23.571Z,99605.14
2022-11-16T04:22:14.832Z,99600.95
2022-11-16T04:24:45.593Z,99593.63
2022-11-16T04:27:33.658Z,99593.26
2022-11-16T04:30:03.413Z,99590.64
2022-11-16T04:32:51.153Z,99587.34
2022-11-16T04:35:36.176Z,99581.08
2022-11-16T04:38:02.851Z,99574.33
2022-11-16T04:40:33.343Z,99569.67
2022-11-16T04:43:02.870Z,99570.39
2022-11-16T04:45:52.271Z,99571.08
2022-11-16T04:48:21.231Z,99567.63
2022-11-16T04:50:50.747Z,99564.85
2022-11-16T04:53:19.676Z,99569.55
2022-11-16T04:55:50.549Z,99570.23
2022-11-16T04:58:18.530Z,99576.64
2022-11-16T05:00:45.270Z,99579.02
2022-11-16T05:03:13.225Z,99577.05
2022-11-16T05:05:39.905Z,99574.11
2022-11-16T05:08:07.394Z,99578.26
2022-11-16T05:10:35.524Z,99582.60
2022-11-16T05:13:02.105Z,99577.91
2022-11-16T05:15:28.693Z,99572.52
2022-11-16T05:17:57.565Z,99570.26
2022-11-16T05:20:43.824Z,99566.80
2022-11-16T05:23:30.569Z,99567.70
2022-11-16T05:26:00.218Z,99565.80
2022-11-16T05:28:27.517Z,99569.65
2022-11-16T05:30:54.111Z,99573.61
2022-11-16T05:33:22.585Z,99564.09
2022-11-16T05:35:50.754Z,99567.41
2022-11-16T05:38:18.767Z,99567.29
2022-11-16T05:40:47.339Z,99568.87
2022-11-16T05:43:14.628Z,99574.24
2022-11-16T05:45:49.069Z,99573.73
2022-11-16T05:48:15.762Z,99570.98
2022-11-16T05:50:43.390Z,99572.91
2022-11-16T05:53:23.702Z,99578.83
2022-11-16T05:55:50.617Z,99578.32
2022-11-16T05:58:17.842Z,99579.88
2022-11-16T06:00:47.871Z,99575.04
2022-11-16T06:03:15.101Z,99570.69
2022-11-16T06:05:42.026Z,99570.68
2022-11-16T06:08:09.466Z,99570.17
2022-11-16T06:10:36.455Z,99562.54
2022-11-16T06:13:03.213Z,99564.13
2022-11-16T06:15:30.399Z,99565.69
2022-11-16T06:17:57.660Z,99564.27
2022-11-16T06:20:24.819Z,99557.66
2022-11-16T06:22:52.245Z,99556.29
2022-11-16T06:25:18.890Z,99552.68
2022-11-16T06:28:11.953Z,99559.98
2022-11-16T06:30:40.259Z,99562.29
2022-11-16T06:33:07.281Z,99556.75
2022-11-16T06:39:40.222Z,99547.79
2022-11-16T06:49:05.396Z,99540.42
2022-11-16T06:51:33.001Z,99537.30
2022-11-16T06:53:59.606Z,99536.10
2022-11-16T06:56:27.109Z,99536.64
2022-11-16T06:58:57.735Z,99532.64
2022-11-16T07:01:25.943Z,99530.71
2022-11-16T07:04:05.824Z,99525.16
2022-11-16T07:06:33.447Z,99525.54
2022-11-16T07:09:05.861Z,99521.90
2022-11-16T07:11:37.331Z,99515.83
2022-11-16T07:14:04.953Z,99511.35
2022-11-16T07:20:08.081Z,99511.10
2022-11-16T07:22:36.403Z,99506.09
2022-11-16T07:26:16.234Z,99506.50
2022-11-16T07:29:03.167Z,99505.15
2022-11-16T07:31:31.912Z,99499.44
2022-11-16T07:34:31.025Z,99495.64
2022-11-16T07:37:44.334Z,99491.17
2022-11-16T07:40:14.058Z,99490.33
2022-11-16T07:42:44.947Z,99481.64
2022-11-16T07:45:27.568Z,99488.98
2022-11-16T07:48:00.304Z,99484.64
2022-11-16T07:50:47.883Z,99484.65
2022-11-16T07:54:25.116Z,99477.02
2022-11-16T07:56:49.472Z,99477.89
2022-11-16T07:59:23.132Z,99473.55
2022-11-16T08:01:51.821Z,99473.39
2022-11-16T08:04:20.549Z,99470.95
2022-11-16T08:06:51.373Z,99473.73
2022-11-16T08:09:20.150Z,99466.61
2022-11-16T08:11:59.373Z,99474.28
2022-11-16T08:14:27.620Z,99468.90
2022-11-16T08:16:58.346Z,99475.21
2022-11-16T08:19:26.356Z,99474.88
2022-11-16T08:21:54.371Z,99479.06
2022-11-16T08:24:22.549Z,99474.20
2022-11-16T08:26:50.968Z,99467.59
2022-11-16T08:29:34.379Z,99451.60
2022-11-16T08:32:55.601Z,99457.52
2022-11-16T08:35:24.533Z,99454.55
2022-11-16T08:37:52.948Z,99449.67
2022-11-16T08:40:22.207Z,99452.45
2022-11-16T08:42:56.738Z,99452.79
2022-11-16T08:48:53.375Z,99450.35
2022-11-16T08:58:37.581Z,99432.44
2022-11-16T09:01:14.315Z,99429.30
2022-11-16T09:03:42.851Z,99431.56
2022-11-16T09:06:12.000Z,99427.91
2022-11-16T09:08:45.509Z,99424.42
2022-11-16T09:11:20.299Z,99425.11
2022-11-16T09:13:51.477Z,99428.73
2022-11-16T09:16:21.567Z,99416.73
2022-11-16T09:18:57.153Z,99406.27
2022-11-16T09:21:27.527Z,99403.67
2022-11-16T09:24:14.002Z,99408.35
2022-11-16T09:33:13.835Z,99405.91
2022-11-16T09:35:43.915Z,99403.62
2022-11-16T09:38:17.509Z,99398.77
2022-11-16T09:40:48.177Z,99387.79
2022-11-16T09:43:45.746Z,99383.73
2022-11-16T09:46:27.565Z,99381.44
2022-11-16T09:49:02.817Z,99377.02
2022-11-16T09:51:34.947Z,99373.14
2022-11-16T09:54:07.416Z,99370.30
2022-11-16T09:56:40.736Z,99367.08
2022-11-16T09:59:12.188Z,99365.43
2022-11-16T10:02:01.862Z,99359.81
2022-11-16T10:04:43.184Z,99359.59
2022-11-16T10:07:25.484Z,99356.77
2022-11-16T10:09:52.365Z,99345.05
2022-11-16T10:12:37.454Z,99339.69
2022-11-16T10:15:13.866Z,99332.55
2022-11-16T10:17:49.503Z,99334.13
2022-11-16T10:20:31.251Z,99327.49
2022-11-16T10:23:17.634Z,99326.52
2022-11-16T10:25:46.817Z,99316.98
2022-11-16T10:28:35.215Z,99318.89
2022-11-16T10:31:30.575Z,99313.64
2022-11-16T10:34:01.158Z,99302.71
2022-11-16T10:36:32.126Z,99299.23
2022-11-16T10:39:00.411Z,99291.91
2022-11-16T10:41:36.827Z,99290.47
2022-11-16T10:44:17.164Z,99286.91
2022-11-16T10:46:55.217Z,99278.56
2022-11-16T10:49:33.061Z,99273.79
2022-11-16T10:52:00.367Z,99267.12
2022-11-16T10:58:00.882Z,99255.83
2022-11-16T11:00:51.267Z,99256.29
2022-11-16T11:03:31.074Z,99252.00
2022-11-16T11:05:58.382Z,99243.32
2022-11-16T11:08:29.962Z,99238.13
2022-11-16T11:11:26.060Z,99232.11
2022-11-16T11:14:08.804Z,99222.69
2022-11-16T11:16:38.700Z,99214.95
2022-11-16T11:19:36.203Z,99210.40
2022-11-16T11:22:05.168Z,99193.13
2022-11-16T11:24:45.177Z,99201.42
2022-11-16T11:27:13.473Z,99197.54
2022-11-16T11:29:42.935Z,99188.25
2022-11-16T11:32:23.900Z,99184.81
2022-11-16T11:34:54.285Z,99176.68
2022-11-16T11:37:29.226Z,99182.34
2022-11-16T11:40:26.034Z,99182.73
2022-11-16T11:44:25.059Z,99182.26
2022-11-16T11:51:30.027Z,99165.77
2022-11-16T11:54:00.625Z,99163.27
2022-11-16T11:56:33.045Z,99154.08
2022-11-16T11:59:05.333Z,99151.52
2022-11-16T12:01:43.532Z,99149.30
2022-11-16T12:04:23.052Z,99138.14
2022-11-16T12:07:02.658Z,99137.14
2022-11-16T12:09:54.729Z,99141.27
2022-11-16T12:12:55.834Z,99138.25
2022-11-16T12:15:42.810Z,99136.09
2022-11-16T12:18:35.636Z,99116.97
2022-11-16T12:21:38.698Z,99120.15
2022-11-16T12:24:32.165Z,99113.38
2022-11-16T12:27:27.271Z,99105.98
2022-11-16T12:34:48.037Z,99096.71
2022-11-16T12:37:43.506Z,99088.48
2022-11-16T12:40:31.431Z,99099.34
2022-11-16T12:43:20.976Z,99094.36
2022-11-16T12:46:02.717Z,99090.93
2022-11-16T12:52:27.028Z,99085.34
2022-11-16T12:55:52.991Z,99085.00
2022-11-16T12:58:40.466Z,99082.85
2022-11-16T13:01:18.142Z,99084.05
2022-11-16T13:03:52.731Z,99084.75
2022-11-16T13:07:10.420Z,99078.69
2022-11-16T13:09:45.955Z,99070.34
2022-11-16T13:12:17.065Z,99079.60
2022-11-16T13:14:50.971Z,99074.08
2022-11-16T13:17:27.141Z,99074.84
2022-11-16T13:20:15.042Z,99068.84
2022-11-16T13:22:54.911Z,99074.70
2022-11-16T13:25:43.599Z,99075.33
2022-11-16T13:36:49.504Z,99071.73
2022-11-16T13:39:58.031Z,99077.69
2022-11-16T13:42:26.489Z,99069.13
2022-11-16T13:45:09.835Z,99065.77
2022-11-16T13:47:42.856Z,99069.73
2022-11-16T13:50:20.541Z,99068.28
2022-11-16T13:54:25.237Z,99072.80
2022-11-16T13:56:16.000Z,99070.56
2022-11-16T13:58:57.033Z,99065.24
2022-11-16T14:01:56.938Z,99058.05
2022-11-16T14:04:55.621Z,99057.81
2022-11-16T14:07:31.755Z,99058.25
2022-11-16T14:10:05.806Z,99060.74
2022-11-16T14:12:38.926Z,99052.95
2022-11-16T14:15:19.256Z,99064.20
2022-11-16T14:17:57.481Z,99052.35
2022-11-16T14:20:58.194Z,99053.04
2022-11-16T14:23:47.341Z,99051.17
2022-11-16T14:26:42.405Z,99047.20
2022-11-16T14:29:44.719Z,99058.00
2022-11-16T14:32:50.129Z,99044.91
2022-11-16T14:35:34.460Z,99050.23
2022-11-16T14:38:06.413Z,99052.99
2022-11-16T14:40:47.491Z,99052.58
2022-11-16T14:43:22.068Z,99039.84
2022-11-16T14:45:57.339Z,99028.24
2022-11-16T14:48:27.307Z,99036.95
2022-11-16T14:51:13.095Z,99022.73
2022-11-16T14:53:57.536Z,99024.71
2022-11-16T14:56:27.610Z,99035.45
2022-11-16T14:58:58.140Z,99036.14
2022-11-16T15:01:33.469Z,99028.87
2022-11-16T15:04:06.064Z,99031.65
2022-11-16T15:06:48.595Z,99031.98
2022-11-16T15:13:24.582Z,99027.75
2022-11-16T15:16:10.339Z,99017.39
2022-11-16T15:18:38.623Z,99030.56
2022-11-16T15:21:20.171Z,99019.83
2022-11-16T15:24:02.065Z,99028.88
2022-11-16T15:26:47.861Z,99028.55
2022-11-16T15:29:18.792Z,99030.02
2022-11-16T15:31:47.618Z,99040.11
2022-11-16T15:34:19.772Z,99033.69
2022-11-16T15:36:48.265Z,99034.36
2022-11-16T15:39:22.528Z,99035.71
2022-11-16T15:41:51.625Z,99030.83
2022-11-16T15:44:20.695Z,99033.41
2022-11-16T15:46:51.762Z,99038.27
2022-11-16T15:49:31.913Z,99038.77
2022-11-16T15:52:01.591Z,99032.89
2022-11-16T15:54:50.711Z,99035.48
2022-11-16T15:57:19.558Z,99030.27
2022-11-16T16:02:36.941Z,99025.96
2022-11-16T16:05:05.874Z,99029.24
2022-11-16T16:07:38.034Z,99031.69
2022-11-16T16:10:23.780Z,99031.30
2022-11-16T16:12:53.655Z,99028.86
2022-11-16T16:15:25.481Z,99034.92
2022-11-16T16:17:54.052Z,99030.03
2022-11-16T16:20:23.264Z,99019.64
2022-11-16T16:22:51.237Z,99020.09
2022-11-16T16:25:31.972Z,99015.58
2022-11-16T16:27:59.990Z,99020.68
2022-11-16T16:30:29.479Z,99017.59
2022-11-16T16:32:56.868Z,99016.27
2022-11-16T16:35:25.840Z,99017.34
2022-11-16T16:38:04.641Z,99016.64
2022-11-16T16:40:32.492Z,99014.38
2022-11-16T16:42:59.498Z,99010.37
2022-11-16T16:45:40.006Z,99008.27
2022-11-16T16:48:12.063Z,99007.06
2022-11-16T16:50:40.420Z,98999.98
2022-11-16T16:53:11.583Z,99001.05
2022-11-16T16:55:38.880Z,99003.73
2022-11-16T16:58:06.079Z,99002.05
2022-11-16T17:00:33.381Z,99003.65
2022-11-16T17:03:01.154Z,98999.35
2022-11-16T17:05:31.154Z,98996.61
2022-11-16T17:07:58.283Z,98997.25
2022-11-16T17:10:25.673Z,98997.21
2022-11-16T17:12:53.273Z,98998.81
2022-11-16T17:15:21.422Z,99005.07
2022-11-16T17:17:48.392Z,99008.20
2022-11-16T17:20:15.873Z,99003.54
2022-11-16T17:22:43.565Z,99004.63
2022-11-16T17:25:11.013Z,99009.02
2022-11-16T17:27:38.822Z,99008.52
2022-11-16T17:30:06.703Z,99013.25
2022-11-16T17:32:33.953Z,99010.50
2022-11-16T17:35:02.380Z,99011.92
2022-11-16T17:37:29.414Z,99008.36
2022-11-16T17:40:01.329Z,99008.94
2022-11-16T17:42:28.636Z,99001.48
2022-11-16T17:44:55.814Z,99004.14
2022-11-16T17:47:25.740Z,98997.51
2022-11-16T17:49:52.652Z,99000.62
2022-11-16T17:52:19.825Z,99000.08
2022-11-16T17:54:46.612Z,98996.40
2022-11-16T17:57:13.953Z,98994.15
2022-11-16T17:59:41.033Z,98990.36
2022-11-16T18:02:10.974Z,98989.84
2022-11-16T18:04:38.780Z,98986.10
2022-11-16T18:07:06.115Z,98986.45
2022-11-16T18:09:33.450Z,98988.38
2022-11-16T18:12:00.952Z,98990.13
2022-11-16T18:14:29.084Z,98989.09
2022-11-16T18:17:02.361Z,98981.27
2022-11-16T18:19:34.686Z,98980.38
2022-11-16T18:22:01.976Z,98978.63
2022-11-16T18:24:29.239Z,98977.40
2022-11-16T18:26:57.385Z,98972.70
2022-11-16T18:29:24.547Z,98972.85
2022-11-16T18:31:51.581Z,98973.35
2022-11-16T18:34:19.046Z,98972.48
2022-11-16T18:36:50.029Z,98967.43
2022-11-16T18:39:17.404Z,98968.63
2022-11-16T18:41:55.580Z,98969.65
2022-11-16T18:44:25.612Z,98972.09
2022-11-16T18:46:52.866Z,98972.26
2022-11-16T18:49:20.153Z,98969.80
2022-11-16T18:51:47.314Z,98969.61
2022-11-16T18:54:17.288Z,98967.67
2022-11-16T18:56:44.492Z,98967.64
2022-11-16T18:59:11.486Z,98967.61
2022-11-16T19:01:38.341Z,98970.21
2022-11-16T19:04:08.385Z,98972.30
2022-11-16T19:06:35.402Z,98973.35
2022-11-16T19:09:03.938Z,98970.23
2022-11-16T19:11:31.673Z,98966.61
2022-11-16T19:14:01.002Z,98965.25
2022-11-16T19:16:30.336Z,98963.70
2022-11-16T19:18:57.463Z,98962.83
2022-11-16T19:21:26.564Z,98959.36
2022-11-16T19:23:55.548Z,98960.40
2022-11-16T19:26:26.143Z,98961.42
2022-11-16T19:28:54.390Z,98967.52
2022-11-16T19:31:27.986Z,98968.90
2022-11-16T19:34:06.968Z,98967.64
2022-11-16T19:36:36.348Z,98972.65
2022-11-16T19:39:05.402Z,98972.45
2022-11-16T19:41:33.410Z,98969.67
2022-11-16T19:44:03.139Z,98967.92
2022-11-16T19:46:32.230Z,98971.88
2022-11-16T19:48:59.822Z,98968.05
2022-11-16T19:51:29.265Z,98966.30
2022-11-16T19:54:00.222Z,98969.76
2022-11-16T19:56:30.866Z,98970.11
2022-11-16T19:58:57.958Z,98970.45
2022-11-16T20:01:28.277Z,98974.26
2022-11-16T20:03:58.641Z,98974.09
2022-11-16T20:06:29.265Z,98967.17
2022-11-16T20:09:04.206Z,98968.23
2022-11-16T20:11:35.350Z,98967.73
2022-11-16T20:14:05.256Z,98963.94
2022-11-16T20:16:38.659Z,98967.28
2022-11-16T20:19:09.791Z,98969.17
2022-11-16T20:21:39.222Z,98967.08
2022-11-16T20:24:09.098Z,98962.75
2022-11-16T20:26:40.059Z,98960.80
2022-11-16T20:29:13.740Z,98959.41
2022-11-16T20:31:44.192Z,98957.84
2022-11-16T20:34:15.031Z,98954.92
2022-11-16T20:36:49.357Z,98950.69
2022-11-16T20:39:20.843Z,98953.17
2022-11-16T20:41:48.552Z,98953.36
2022-11-16T20:44:22.357Z,98947.69
2022-11-16T20:46:52.302Z,98939.59
2022-11-16T20:49:22.289Z,98935.27
2022-11-16T20:51:53.542Z,98934.61
2022-11-16T20:54:21.380Z,98930.68
2022-11-16T20:56:49.985Z,98940.09
2022-11-16T20:59:19.802Z,98929.42
2022-11-16T21:01:49.031Z,98935.35
2022-11-16T21:04:17.314Z,98927.39
2022-11-16T21:06:45.960Z,98929.29
2022-11-16T21:09:22.235Z,98923.55
2022-11-16T21:12:08.815Z,98919.69
2022-11-16T21:14:37.100Z,98909.96
2022-11-16T21:17:05.861Z,98911.16
2022-11-16T21:19:36.430Z,98913.95
2022-11-16T21:22:06.207Z,98913.97
2022-11-16T21:24:35.475Z,98906.68
2022-11-16T21:27:04.846Z,98919.22
2022-11-16T21:29:34.651Z,98911.57
2022-11-16T21:32:05.113Z,98916.95
2022-11-16T21:34:37.256Z,98910.02
2022-11-16T21:37:08.066Z,98906.55
2022-11-16T21:39:35.769Z,98905.34
2022-11-16T21:42:03.668Z,98904.81
2022-11-16T21:44:42.910Z,98901.01
2022-11-16T21:47:12.335Z,98893.09
2022-11-16T21:50:08.342Z,98889.30
2022-11-16T21:52:29.267Z,98893.85
2022-11-16T21:55:00.698Z,98887.77
2022-11-16T21:57:28.294Z,98887.41
2022-11-16T21:59:55.719Z,98893.83
2022-11-16T22:02:26.425Z,98887.41
2022-11-16T22:05:13.829Z,98885.32
2022-11-16T22:07:41.921Z,98883.06
2022-11-16T22:10:10.892Z,98878.69
2022-11-16T22:12:38.636Z,98876.22
2022-11-16T22:15:06.734Z,98873.80
2022-11-16T22:17:34.418Z,98868.27
2022-11-16T22:20:01.383Z,98858.89
2022-11-16T22:22:28.539Z,98859.93
2022-11-16T22:24:55.978Z,98859.27
2022-11-16T22:27:23.253Z,98861.85
2022-11-16T22:29:50.615Z,98856.69
2022-11-16T22:32:18.061Z,98855.98
2022-11-16T22:34:46.096Z,98852.70
2022-11-16T22:37:14.660Z,98851.98
2022-11-16T22:39:42.778Z,98847.48
2022-11-16T22:42:12.567Z,98839.35
2022-11-16T22:44:39.665Z,98842.63
2022-11-16T22:47:09.959Z,98844.55
2022-11-16T22:50:06.135Z,98841.96
2022-11-16T22:52:37.132Z,98832.74
2022-11-16T22:55:04.445Z,98833.05
2022-11-16T22:57:46.423Z,98827.67
2022-11-16T23:00:23.216Z,98825.56
2022-11-16T23:02:51.758Z,98821.38
2022-11-16T23:05:18.784Z,98813.74
2022-11-16T23:07:45.651Z,98812.36
2022-11-16T23:10:13.307Z,98805.81
2022-11-16T23:13:15.625Z,98803.54
2022-11-16T23:15:48.883Z,98797.30
2022-11-16T23:18:17.061Z,98787.98
2022-11-16T23:21:19.666Z,98797.16
2022-11-16T23:24:05.413Z,98796.80
2022-11-16T23:26:51.208Z,98784.33
2022-11-16T23:29:19.237Z,98781.23
2022-11-16T23:31:48.569Z,98783.13
2022-11-16T23:34:16.576Z,98771.34
2022-11-16T23:36:44.650Z,98780.48
2022-11-16T23:39:12.494Z,98774.61
2022-11-16T23:41:58.902Z,98773.35
2022-11-16T23:44:26.637Z,98776.47
2022-11-16T23:46:54.270Z,98780.98
2022-11-16T23:49:22.277Z,98785.16
2022-11-16T23:51:50.321Z,98781.17
2022-11-16T23:57:18.426Z,98775.52
2022-11-16T23:59:47.229Z,98775.66
